Zwingle, Iowa
Current Conditions -  °F | °C
As of 8:53 PM on Friday 19 Dec 2014 (Local Time) from KDBQ Reporting Station
Overcast Overcast  
Wind Chill: 16°   Ceiling: 4800
Heat Index: 23°   Visibility: 8mi
Dew Point: 20°   Wind: 6mph
Humidity: 88%   Direction: 170°S
Pressure: 30.23"   Gusts: NA
Location:  42.3°N, 90.69°W
Report Text: KDBQ 200253Z AUTO 17005KT 8SM OVC048 M05/M07 A3023 RMK AO2 SLP253 T10501067 58007
Loading
Personal Weather Stations






























Interactive Weather Map New forecast layout! Learn more

10-Day Weather Forecast

Advertisements
Track Severe Weather on mobile